sensor_id;sensor_type;location;lat;lon;timestamp;temperature;humidity
52075;DHT22;38075;53.172;5.446;2022-09-29T00:01:31;4.80;99.90
52075;DHT22;38075;53.172;5.446;2022-09-29T00:03:56;4.90;99.90
52075;DHT22;38075;53.172;5.446;2022-09-29T00:06:22;4.70;99.90
52075;DHT22;38075;53.172;5.446;2022-09-29T00:08:48;4.60;99.90
52075;DHT22;38075;53.172;5.446;2022-09-29T00:11:16;4.50;99.90
52075;DHT22;38075;53.172;5.446;2022-09-29T00:13:42;4.90;99.90
52075;DHT22;38075;53.172;5.446;2022-09-29T00:16:08;4.50;99.90
52075;DHT22;38075;53.172;5.446;2022-09-29T00:18:35;4.50;99.90
52075;DHT22;38075;53.172;5.446;2022-09-29T00:21:04;4.60;99.90
52075;DHT22;38075;53.172;5.446;2022-09-29T00:23:30;4.70;99.90
52075;DHT22;38075;53.172;5.446;2022-09-29T00:26:02;4.60;99.90
52075;DHT22;38075;53.172;5.446;2022-09-29T00:28:28;4.50;99.90
52075;DHT22;38075;53.172;5.446;2022-09-29T00:30:53;4.60;99.90
52075;DHT22;38075;53.172;5.446;2022-09-29T00:33:19;4.60;99.90
52075;DHT22;38075;53.172;5.446;2022-09-29T00:35:55;4.60;99.90
52075;DHT22;38075;53.172;5.446;2022-09-29T00:38:21;4.60;99.90
52075;DHT22;38075;53.172;5.446;2022-09-29T00:40:46;4.50;99.90
52075;DHT22;38075;53.172;5.446;2022-09-29T00:43:20;4.50;99.90
52075;DHT22;38075;53.172;5.446;2022-09-29T00:45:47;4.30;99.90
52075;DHT22;38075;53.172;5.446;2022-09-29T00:48:16;4.20;99.90
52075;DHT22;38075;53.172;5.446;2022-09-29T00:50:44;4.20;99.90
52075;DHT22;38075;53.172;5.446;2022-09-29T00:53:11;4.20;99.90
52075;DHT22;38075;53.172;5.446;2022-09-29T00:56:05;4.10;99.90
52075;DHT22;38075;53.172;5.446;2022-09-29T00:58:46;4.20;99.90
52075;DHT22;38075;53.172;5.446;2022-09-29T01:01:20;4.30;99.90
52075;DHT22;38075;53.172;5.446;2022-09-29T01:03:46;4.40;99.90
52075;DHT22;38075;53.172;5.446;2022-09-29T01:09:14;4.40;99.90
52075;DHT22;38075;53.172;5.446;2022-09-29T01:11:40;4.40;99.90
52075;DHT22;38075;53.172;5.446;2022-09-29T01:14:08;4.40;99.90
52075;DHT22;38075;53.172;5.446;2022-09-29T01:16:36;4.20;99.90
52075;DHT22;38075;53.172;5.446;2022-09-29T01:19:10;4.10;99.90
52075;DHT22;38075;53.172;5.446;2022-09-29T01:35:39;4.30;99.90
52075;DHT22;38075;53.172;5.446;2022-09-29T01:47:04;4.10;99.90
52075;DHT22;38075;53.172;5.446;2022-09-29T01:49:34;4.10;99.90
52075;DHT22;38075;53.172;5.446;2022-09-29T01:52:12;4.10;99.90
52075;DHT22;38075;53.172;5.446;2022-09-29T01:54:56;4.10;99.90
52075;DHT22;38075;53.172;5.446;2022-09-29T01:57:55;4.10;99.90
52075;DHT22;38075;53.172;5.446;2022-09-29T02:00:22;4.10;99.90
52075;DHT22;38075;53.172;5.446;2022-09-29T02:05:28;4.50;99.90
52075;DHT22;38075;53.172;5.446;2022-09-29T02:07:59;4.10;99.90
52075;DHT22;38075;53.172;5.446;2022-09-29T02:10:36;4.20;99.90
52075;DHT22;38075;53.172;5.446;2022-09-29T02:13:07;4.50;99.90
52075;DHT22;38075;53.172;5.446;2022-09-29T02:15:38;4.20;99.90
52075;DHT22;38075;53.172;5.446;2022-09-29T02:18:29;4.20;99.90
52075;DHT22;38075;53.172;5.446;2022-09-29T02:20:53;4.10;99.90
52075;DHT22;38075;53.172;5.446;2022-09-29T02:23:19;3.90;99.90
52075;DHT22;38075;53.172;5.446;2022-09-29T02:25:47;3.70;99.90
52075;DHT22;38075;53.172;5.446;2022-09-29T02:28:15;3.60;99.90
52075;DHT22;38075;53.172;5.446;2022-09-29T02:30:41;3.60;99.90
52075;DHT22;38075;53.172;5.446;2022-09-29T02:33:21;3.60;99.90
52075;DHT22;38075;53.172;5.446;2022-09-29T02:41:45;3.50;99.90
52075;DHT22;38075;53.172;5.446;2022-09-29T02:44:29;3.20;99.90
52075;DHT22;38075;53.172;5.446;2022-09-29T02:55:27;3.30;99.90
52075;DHT22;38075;53.172;5.446;2022-09-29T03:00:34;3.40;99.90
52075;DHT22;38075;53.172;5.446;2022-09-29T03:03:00;3.50;99.90
52075;DHT22;38075;53.172;5.446;2022-09-29T03:05:28;3.50;99.90
52075;DHT22;38075;53.172;5.446;2022-09-29T03:07:54;3.70;99.90
52075;DHT22;38075;53.172;5.446;2022-09-29T03:10:19;3.70;99.90
52075;DHT22;38075;53.172;5.446;2022-09-29T03:12:45;3.80;99.90
52075;DHT22;38075;53.172;5.446;2022-09-29T03:15:11;3.90;99.90
52075;DHT22;38075;53.172;5.446;2022-09-29T03:17:38;4.00;99.90
52075;DHT22;38075;53.172;5.446;2022-09-29T03:20:04;4.00;99.90
52075;DHT22;38075;53.172;5.446;2022-09-29T03:22:30;4.00;99.90
52075;DHT22;38075;53.172;5.446;2022-09-29T03:24:56;4.10;99.90
52075;DHT22;38075;53.172;5.446;2022-09-29T03:27:22;4.20;99.90
52075;DHT22;38075;53.172;5.446;2022-09-29T03:29:47;4.30;99.90
52075;DHT22;38075;53.172;5.446;2022-09-29T03:32:15;4.20;99.90
52075;DHT22;38075;53.172;5.446;2022-09-29T03:34:41;4.20;99.90
52075;DHT22;38075;53.172;5.446;2022-09-29T03:37:07;4.20;99.90
52075;DHT22;38075;53.172;5.446;2022-09-29T03:39:33;4.20;99.90
52075;DHT22;38075;53.172;5.446;2022-09-29T03:41:59;4.20;99.90
52075;DHT22;38075;53.172;5.446;2022-09-29T03:44:24;4.20;99.90
52075;DHT22;38075;53.172;5.446;2022-09-29T03:46:50;4.20;99.90
52075;DHT22;38075;53.172;5.446;2022-09-29T03:49:16;4.20;99.90
52075;DHT22;38075;53.172;5.446;2022-09-29T03:51:42;4.20;99.90
52075;DHT22;38075;53.172;5.446;2022-09-29T03:54:08;4.20;99.90
52075;DHT22;38075;53.172;5.446;2022-09-29T03:56:35;4.10;99.90
52075;DHT22;38075;53.172;5.446;2022-09-29T03:59:02;4.00;99.90
52075;DHT22;38075;53.172;5.446;2022-09-29T04:01:30;3.90;99.90
52075;DHT22;38075;53.172;5.446;2022-09-29T04:03:56;3.90;99.90
52075;DHT22;38075;53.172;5.446;2022-09-29T04:06:22;3.70;99.90
52075;DHT22;38075;53.172;5.446;2022-09-29T04:08:48;3.70;99.90
52075;DHT22;38075;53.172;5.446;2022-09-29T04:11:14;3.70;99.90
52075;DHT22;38075;53.172;5.446;2022-09-29T04:13:43;3.70;99.90
52075;DHT22;38075;53.172;5.446;2022-09-29T04:16:08;3.90;99.90
52075;DHT22;38075;53.172;5.446;2022-09-29T04:18:35;3.90;99.90
52075;DHT22;38075;53.172;5.446;2022-09-29T04:21:05;3.90;99.90
52075;DHT22;38075;53.172;5.446;2022-09-29T04:23:31;4.00;99.90
52075;DHT22;38075;53.172;5.446;2022-09-29T04:25:57;4.00;99.90
52075;DHT22;38075;53.172;5.446;2022-09-29T04:28:24;4.00;99.90
52075;DHT22;38075;53.172;5.446;2022-09-29T04:30:50;4.00;99.90
52075;DHT22;38075;53.172;5.446;2022-09-29T04:33:15;4.00;99.90
52075;DHT22;38075;53.172;5.446;2022-09-29T04:35:44;4.10;99.90
52075;DHT22;38075;53.172;5.446;2022-09-29T04:38:13;4.10;99.90
52075;DHT22;38075;53.172;5.446;2022-09-29T04:40:39;4.10;99.90
52075;DHT22;38075;53.172;5.446;2022-09-29T04:43:05;4.10;99.90
52075;DHT22;38075;53.172;5.446;2022-09-29T04:45:30;4.10;99.90
52075;DHT22;38075;53.172;5.446;2022-09-29T04:47:56;4.00;99.90
52075;DHT22;38075;53.172;5.446;2022-09-29T04:50:22;4.00;99.90
52075;DHT22;38075;53.172;5.446;2022-09-29T04:52:48;4.00;99.90
52075;DHT22;38075;53.172;5.446;2022-09-29T04:55:14;3.90;99.90
52075;DHT22;38075;53.172;5.446;2022-09-29T04:57:41;3.90;99.90
52075;DHT22;38075;53.172;5.446;2022-09-29T05:00:08;3.90;99.90
52075;DHT22;38075;53.172;5.446;2022-09-29T05:02:35;3.90;99.90
52075;DHT22;38075;53.172;5.446;2022-09-29T05:05:01;3.80;99.90
52075;DHT22;38075;53.172;5.446;2022-09-29T05:07:26;3.90;99.90
52075;DHT22;38075;53.172;5.446;2022-09-29T05:09:52;4.00;99.90
52075;DHT22;38075;53.172;5.446;2022-09-29T05:12:18;4.00;99.90
52075;DHT22;38075;53.172;5.446;2022-09-29T05:14:43;4.00;99.90
52075;DHT22;38075;53.172;5.446;2022-09-29T05:17:09;4.00;99.90
52075;DHT22;38075;53.172;5.446;2022-09-29T05:19:35;4.00;99.90
52075;DHT22;38075;53.172;5.446;2022-09-29T05:22:01;3.90;99.90
52075;DHT22;38075;53.172;5.446;2022-09-29T05:24:27;3.80;99.90
52075;DHT22;38075;53.172;5.446;2022-09-29T05:26:53;3.80;99.90
52075;DHT22;38075;53.172;5.446;2022-09-29T05:29:19;3.80;99.90
52075;DHT22;38075;53.172;5.446;2022-09-29T05:31:44;3.70;99.90
52075;DHT22;38075;53.172;5.446;2022-09-29T05:34:10;3.70;99.90
52075;DHT22;38075;53.172;5.446;2022-09-29T05:36:36;3.70;99.90
52075;DHT22;38075;53.172;5.446;2022-09-29T05:39:02;3.50;99.90
52075;DHT22;38075;53.172;5.446;2022-09-29T05:41:28;3.40;99.90
52075;DHT22;38075;53.172;5.446;2022-09-29T05:43:54;3.40;99.90
52075;DHT22;38075;53.172;5.446;2022-09-29T05:46:21;3.50;99.90
52075;DHT22;38075;53.172;5.446;2022-09-29T05:48:48;3.60;99.90
52075;DHT22;38075;53.172;5.446;2022-09-29T05:51:17;3.70;99.90
52075;DHT22;38075;53.172;5.446;2022-09-29T05:53:44;3.70;99.90
52075;DHT22;38075;53.172;5.446;2022-09-29T05:56:12;3.80;99.90
52075;DHT22;38075;53.172;5.446;2022-09-29T05:58:39;3.80;99.90
52075;DHT22;38075;53.172;5.446;2022-09-29T06:01:14;3.80;99.90
52075;DHT22;38075;53.172;5.446;2022-09-29T06:03:40;3.80;99.90
52075;DHT22;38075;53.172;5.446;2022-09-29T06:06:20;3.80;99.90
52075;DHT22;38075;53.172;5.446;2022-09-29T06:08:47;3.80;99.90
52075;DHT22;38075;53.172;5.446;2022-09-29T06:11:21;3.70;99.90
52075;DHT22;38075;53.172;5.446;2022-09-29T06:13:49;3.80;99.90
52075;DHT22;38075;53.172;5.446;2022-09-29T06:16:16;3.70;99.90
52075;DHT22;38075;53.172;5.446;2022-09-29T06:18:42;4.00;99.90
52075;DHT22;38075;53.172;5.446;2022-09-29T06:21:13;3.90;99.90
52075;DHT22;38075;53.172;5.446;2022-09-29T06:23:40;3.90;99.90
52075;DHT22;38075;53.172;5.446;2022-09-29T06:26:08;3.90;99.90
52075;DHT22;38075;53.172;5.446;2022-09-29T06:28:34;4.30;99.90
52075;DHT22;38075;53.172;5.446;2022-09-29T06:31:03;4.10;99.90
52075;DHT22;38075;53.172;5.446;2022-09-29T06:33:30;4.10;99.90
52075;DHT22;38075;53.172;5.446;2022-09-29T06:35:56;4.10;99.90
52075;DHT22;38075;53.172;5.446;2022-09-29T06:38:41;4.20;99.90
52075;DHT22;38075;53.172;5.446;2022-09-29T06:41:08;4.10;99.90
52075;DHT22;38075;53.172;5.446;2022-09-29T06:43:34;4.10;99.90
52075;DHT22;38075;53.172;5.446;2022-09-29T06:46:00;4.30;99.90
52075;DHT22;38075;53.172;5.446;2022-09-29T06:48:26;4.40;99.90
52075;DHT22;38075;53.172;5.446;2022-09-29T06:50:54;4.50;99.90
52075;DHT22;38075;53.172;5.446;2022-09-29T06:53:20;4.50;99.90
52075;DHT22;38075;53.172;5.446;2022-09-29T06:55:55;4.60;99.90
52075;DHT22;38075;53.172;5.446;2022-09-29T06:58:24;4.80;99.90
52075;DHT22;38075;53.172;5.446;2022-09-29T07:00:49;5.00;99.90
52075;DHT22;38075;53.172;5.446;2022-09-29T07:03:15;5.00;99.90
52075;DHT22;38075;53.172;5.446;2022-09-29T07:05:41;5.20;99.90
52075;DHT22;38075;53.172;5.446;2022-09-29T07:08:08;5.30;99.90
52075;DHT22;38075;53.172;5.446;2022-09-29T07:10:34;5.50;99.90
52075;DHT22;38075;53.172;5.446;2022-09-29T07:12:59;5.70;99.90
52075;DHT22;38075;53.172;5.446;2022-09-29T07:15:25;5.90;99.90
52075;DHT22;38075;53.172;5.446;2022-09-29T07:17:58;6.30;99.90
52075;DHT22;38075;53.172;5.446;2022-09-29T07:20:28;6.40;99.90
52075;DHT22;38075;53.172;5.446;2022-09-29T07:22:54;6.60;99.90
52075;DHT22;38075;53.172;5.446;2022-09-29T07:25:20;6.90;99.90
52075;DHT22;38075;53.172;5.446;2022-09-29T07:27:47;7.10;99.90
52075;DHT22;38075;53.172;5.446;2022-09-29T07:30:13;7.60;1.00
52075;DHT22;38075;53.172;5.446;2022-09-29T07:32:39;7.50;1.00
52075;DHT22;38075;53.172;5.446;2022-09-29T07:35:05;7.80;1.00
52075;DHT22;38075;53.172;5.446;2022-09-29T07:37:31;8.00;1.00
52075;DHT22;38075;53.172;5.446;2022-09-29T07:39:57;8.20;1.00
52075;DHT22;38075;53.172;5.446;2022-09-29T07:42:23;8.90;1.00
52075;DHT22;38075;53.172;5.446;2022-09-29T07:44:49;8.80;1.00
52075;DHT22;38075;53.172;5.446;2022-09-29T07:47:14;9.00;1.00
52075;DHT22;38075;53.172;5.446;2022-09-29T07:49:40;9.20;1.00
52075;DHT22;38075;53.172;5.446;2022-09-29T07:52:06;9.30;1.00
52075;DHT22;38075;53.172;5.446;2022-09-29T07:54:33;9.50;1.00
52075;DHT22;38075;53.172;5.446;2022-09-29T07:56:58;9.70;99.90
52075;DHT22;38075;53.172;5.446;2022-09-29T07:59:26;9.90;99.90
52075;DHT22;38075;53.172;5.446;2022-09-29T08:01:52;10.20;99.90
52075;DHT22;38075;53.172;5.446;2022-09-29T08:04:18;10.40;99.90
52075;DHT22;38075;53.172;5.446;2022-09-29T08:06:44;10.60;99.90
52075;DHT22;38075;53.172;5.446;2022-09-29T08:09:13;10.80;99.90
52075;DHT22;38075;53.172;5.446;2022-09-29T08:11:43;11.00;99.90
52075;DHT22;38075;53.172;5.446;2022-09-29T08:14:10;11.00;99.90
52075;DHT22;38075;53.172;5.446;2022-09-29T08:16:36;11.20;99.90
52075;DHT22;38075;53.172;5.446;2022-09-29T08:19:03;11.30;99.90
52075;DHT22;38075;53.172;5.446;2022-09-29T08:21:29;11.50;99.90
52075;DHT22;38075;53.172;5.446;2022-09-29T08:23:56;11.70;99.90
52075;DHT22;38075;53.172;5.446;2022-09-29T08:26:22;11.80;99.90
52075;DHT22;38075;53.172;5.446;2022-09-29T08:28:48;12.00;99.90
52075;DHT22;38075;53.172;5.446;2022-09-29T08:31:16;12.10;99.90
52075;DHT22;38075;53.172;5.446;2022-09-29T08:33:45;12.20;99.90
52075;DHT22;38075;53.172;5.446;2022-09-29T08:36:13;12.30;99.90
52075;DHT22;38075;53.172;5.446;2022-09-29T08:38:41;12.30;99.90
52075;DHT22;38075;53.172;5.446;2022-09-29T08:44:42;12.60;99.90
52075;DHT22;38075;53.172;5.446;2022-09-29T08:49:45;12.70;99.90
52075;DHT22;38075;53.172;5.446;2022-09-29T08:52:15;12.80;99.90
52075;DHT22;38075;53.172;5.446;2022-09-29T08:54:44;12.80;99.90
52075;DHT22;38075;53.172;5.446;2022-09-29T08:57:15;12.80;99.90
52075;DHT22;38075;53.172;5.446;2022-09-29T08:59:58;12.80;99.90
52075;DHT22;38075;53.172;5.446;2022-09-29T09:08:43;12.80;99.90
52075;DHT22;38075;53.172;5.446;2022-09-29T09:16:53;13.20;99.90
52075;DHT22;38075;53.172;5.446;2022-09-29T09:27:47;13.70;99.90
52075;DHT22;38075;53.172;5.446;2022-09-29T09:30:16;13.90;99.90
52075;DHT22;38075;53.172;5.446;2022-09-29T09:32:54;14.00;99.90
52075;DHT22;38075;53.172;5.446;2022-09-29T09:35:43;14.10;99.90
52075;DHT22;38075;53.172;5.446;2022-09-29T09:38:23;14.10;99.90
52075;DHT22;38075;53.172;5.446;2022-09-29T09:40:54;14.20;99.90
52075;DHT22;38075;53.172;5.446;2022-09-29T09:45:55;14.40;99.90
52075;DHT22;38075;53.172;5.446;2022-09-29T09:48:44;14.30;99.90
52075;DHT22;38075;53.172;5.446;2022-09-29T09:51:32;14.50;99.90
52075;DHT22;38075;53.172;5.446;2022-09-29T09:54:02;14.50;99.90
52075;DHT22;38075;53.172;5.446;2022-09-29T09:57:31;14.60;99.90
52075;DHT22;38075;53.172;5.446;2022-09-29T10:02:19;14.70;99.90
52075;DHT22;38075;53.172;5.446;2022-09-29T10:04:50;14.80;99.90
52075;DHT22;38075;53.172;5.446;2022-09-29T10:07:17;14.80;99.90
52075;DHT22;38075;53.172;5.446;2022-09-29T10:09:43;14.90;99.90
52075;DHT22;38075;53.172;5.446;2022-09-29T10:12:18;14.80;99.90
52075;DHT22;38075;53.172;5.446;2022-09-29T10:17:21;15.00;99.90
52075;DHT22;38075;53.172;5.446;2022-09-29T10:22:19;15.20;99.90
52075;DHT22;38075;53.172;5.446;2022-09-29T10:24:45;15.10;99.90
52075;DHT22;38075;53.172;5.446;2022-09-29T10:27:17;15.00;99.90
52075;DHT22;38075;53.172;5.446;2022-09-29T10:29:46;15.00;99.90
52075;DHT22;38075;53.172;5.446;2022-09-29T10:32:30;14.90;99.90
52075;DHT22;38075;53.172;5.446;2022-09-29T10:35:22;15.00;99.90
52075;DHT22;38075;53.172;5.446;2022-09-29T10:38:01;15.10;99.90
52075;DHT22;38075;53.172;5.446;2022-09-29T10:40:27;15.10;99.90
52075;DHT22;38075;53.172;5.446;2022-09-29T10:42:55;15.00;99.90
52075;DHT22;38075;53.172;5.446;2022-09-29T10:45:28;15.10;99.90
52075;DHT22;38075;53.172;5.446;2022-09-29T10:50:25;15.10;99.90
52075;DHT22;38075;53.172;5.446;2022-09-29T10:55:29;15.20;99.90
52075;DHT22;38075;53.172;5.446;2022-09-29T10:57:57;15.30;99.90
52075;DHT22;38075;53.172;5.446;2022-09-29T11:00:25;15.30;99.90
52075;DHT22;38075;53.172;5.446;2022-09-29T11:02:52;15.40;99.90
52075;DHT22;38075;53.172;5.446;2022-09-29T11:05:22;15.50;99.90
52075;DHT22;38075;53.172;5.446;2022-09-29T11:07:50;15.60;99.90
52075;DHT22;38075;53.172;5.446;2022-09-29T11:10:36;15.40;99.90
52075;DHT22;38075;53.172;5.446;2022-09-29T11:15:43;15.20;99.90
52075;DHT22;38075;53.172;5.446;2022-09-29T11:18:34;15.20;99.90
52075;DHT22;38075;53.172;5.446;2022-09-29T11:26:24;15.30;95.60
52075;DHT22;38075;53.172;5.446;2022-09-29T11:40:44;15.60;97.90
52075;DHT22;38075;53.172;5.446;2022-09-29T12:00:13;16.30;92.30
52075;DHT22;38075;53.172;5.446;2022-09-29T12:13:52;16.40;86.60
52075;DHT22;38075;53.172;5.446;2022-09-29T12:16:21;16.60;85.30
52075;DHT22;38075;53.172;5.446;2022-09-29T12:19:07;16.50;85.10
52075;DHT22;38075;53.172;5.446;2022-09-29T12:21:40;16.50;81.30
52075;DHT22;38075;53.172;5.446;2022-09-29T12:24:15;16.60;81.90
52075;DHT22;38075;53.172;5.446;2022-09-29T12:26:44;16.90;83.30
52075;DHT22;38075;53.172;5.446;2022-09-29T12:30:08;17.00;83.40
52075;DHT22;38075;53.172;5.446;2022-09-29T12:32:36;16.60;77.90
52075;DHT22;38075;53.172;5.446;2022-09-29T12:35:15;16.20;84.00
52075;DHT22;38075;53.172;5.446;2022-09-29T12:37:46;16.00;84.80
52075;DHT22;38075;53.172;5.446;2022-09-29T12:49:20;16.50;85.80
52075;DHT22;38075;53.172;5.446;2022-09-29T12:51:48;16.30;79.00
52075;DHT22;38075;53.172;5.446;2022-09-29T12:54:27;16.20;83.70
52075;DHT22;38075;53.172;5.446;2022-09-29T12:57:07;16.00;74.20
52075;DHT22;38075;53.172;5.446;2022-09-29T12:59:58;15.70;72.20
52075;DHT22;38075;53.172;5.446;2022-09-29T13:21:55;16.60;65.70
52075;DHT22;38075;53.172;5.446;2022-09-29T13:27:31;16.50;59.50
52075;DHT22;38075;53.172;5.446;2022-09-29T13:30:14;16.30;60.30
52075;DHT22;38075;53.172;5.446;2022-09-29T13:32:44;16.30;62.60
52075;DHT22;38075;53.172;5.446;2022-09-29T13:35:19;16.30;64.30
52075;DHT22;38075;53.172;5.446;2022-09-29T13:40:22;16.20;64.50
52075;DHT22;38075;53.172;5.446;2022-09-29T13:42:51;16.00;64.80
52075;DHT22;38075;53.172;5.446;2022-09-29T14:01:08;15.20;77.40
52075;DHT22;38075;53.172;5.446;2022-09-29T14:03:39;15.00;80.30
52075;DHT22;38075;53.172;5.446;2022-09-29T14:06:21;14.90;85.60
52075;DHT22;38075;53.172;5.446;2022-09-29T14:09:18;14.80;89.40
52075;DHT22;38075;53.172;5.446;2022-09-29T14:11:51;14.80;90.20
52075;DHT22;38075;53.172;5.446;2022-09-29T14:14:21;14.70;90.80
52075;DHT22;38075;53.172;5.446;2022-09-29T14:25:23;14.40;91.80
52075;DHT22;38075;53.172;5.446;2022-09-29T14:33:28;14.30;93.80
52075;DHT22;38075;53.172;5.446;2022-09-29T14:38:32;14.40;95.50
52075;DHT22;38075;53.172;5.446;2022-09-29T14:43:41;14.70;95.10
52075;DHT22;38075;53.172;5.446;2022-09-29T14:48:55;14.80;94.50
52075;DHT22;38075;53.172;5.446;2022-09-29T14:51:56;14.90;93.80
52075;DHT22;38075;53.172;5.446;2022-09-29T14:54:33;15.00;93.70
52075;DHT22;38075;53.172;5.446;2022-09-29T15:00:15;15.00;94.30
52075;DHT22;38075;53.172;5.446;2022-09-29T15:02:43;15.10;92.30
52075;DHT22;38075;53.172;5.446;2022-09-29T15:05:32;15.00;92.20
52075;DHT22;38075;53.172;5.446;2022-09-29T15:07:59;14.90;91.30
52075;DHT22;38075;53.172;5.446;2022-09-29T15:10:31;14.90;92.00
52075;DHT22;38075;53.172;5.446;2022-09-29T15:13:22;14.90;91.10
52075;DHT22;38075;53.172;5.446;2022-09-29T15:15:49;14.80;91.20
52075;DHT22;38075;53.172;5.446;2022-09-29T15:18:29;14.80;92.10
52075;DHT22;38075;53.172;5.446;2022-09-29T15:21:05;14.80;92.10
52075;DHT22;38075;53.172;5.446;2022-09-29T15:26:43;14.60;93.20
52075;DHT22;38075;53.172;5.446;2022-09-29T15:29:14;14.60;94.60
52075;DHT22;38075;53.172;5.446;2022-09-29T15:31:43;14.50;95.80
52075;DHT22;38075;53.172;5.446;2022-09-29T15:34:16;14.60;96.40
52075;DHT22;38075;53.172;5.446;2022-09-29T15:36:46;14.50;97.10
52075;DHT22;38075;53.172;5.446;2022-09-29T15:39:39;14.50;97.60
52075;DHT22;38075;53.172;5.446;2022-09-29T15:42:15;14.50;98.10
52075;DHT22;38075;53.172;5.446;2022-09-29T15:45:14;14.50;98.70
52075;DHT22;38075;53.172;5.446;2022-09-29T15:47:39;14.40;98.90
52075;DHT22;38075;53.172;5.446;2022-09-29T15:50:23;14.50;99.90
52075;DHT22;38075;53.172;5.446;2022-09-29T15:52:49;14.40;99.30
52075;DHT22;38075;53.172;5.446;2022-09-29T15:55:21;14.40;99.90
52075;DHT22;38075;53.172;5.446;2022-09-29T15:57:50;14.40;99.90
52075;DHT22;38075;53.172;5.446;2022-09-29T16:05:26;14.30;99.90
52075;DHT22;38075;53.172;5.446;2022-09-29T16:10:29;14.10;99.90
52075;DHT22;38075;53.172;5.446;2022-09-29T16:13:01;14.10;99.90
52075;DHT22;38075;53.172;5.446;2022-09-29T16:15:46;14.00;99.90
52075;DHT22;38075;53.172;5.446;2022-09-29T16:18:19;13.80;99.90
52075;DHT22;38075;53.172;5.446;2022-09-29T16:20:46;13.90;99.90
52075;DHT22;38075;53.172;5.446;2022-09-29T16:23:44;13.80;99.90
52075;DHT22;38075;53.172;5.446;2022-09-29T16:26:18;13.70;99.90
52075;DHT22;38075;53.172;5.446;2022-09-29T16:31:39;13.50;99.90
52075;DHT22;38075;53.172;5.446;2022-09-29T16:37:16;13.70;99.90
52075;DHT22;38075;53.172;5.446;2022-09-29T16:39:45;13.40;99.90
52075;DHT22;38075;53.172;5.446;2022-09-29T16:42:25;13.30;99.90
52075;DHT22;38075;53.172;5.446;2022-09-29T16:44:52;13.30;99.90
52075;DHT22;38075;53.172;5.446;2022-09-29T16:47:24;13.20;99.90
52075;DHT22;38075;53.172;5.446;2022-09-29T16:49:58;13.30;99.90
52075;DHT22;38075;53.172;5.446;2022-09-29T16:52:34;13.10;99.90
52075;DHT22;38075;53.172;5.446;2022-09-29T16:55:17;13.00;99.90
52075;DHT22;38075;53.172;5.446;2022-09-29T16:57:54;13.00;99.90
52075;DHT22;38075;53.172;5.446;2022-09-29T17:00:20;13.00;99.90
52075;DHT22;38075;53.172;5.446;2022-09-29T17:02:50;13.00;99.90
52075;DHT22;38075;53.172;5.446;2022-09-29T17:05:16;12.90;99.90
52075;DHT22;38075;53.172;5.446;2022-09-29T17:07:41;12.80;99.90
52075;DHT22;38075;53.172;5.446;2022-09-29T17:10:15;12.80;99.90
52075;DHT22;38075;53.172;5.446;2022-09-29T17:12:41;12.80;99.90
52075;DHT22;38075;53.172;5.446;2022-09-29T17:15:15;12.80;99.90
52075;DHT22;38075;53.172;5.446;2022-09-29T17:17:43;12.70;99.90
52075;DHT22;38075;53.172;5.446;2022-09-29T17:20:16;12.70;99.90
52075;DHT22;38075;53.172;5.446;2022-09-29T17:22:42;12.70;99.90
52075;DHT22;38075;53.172;5.446;2022-09-29T17:25:10;12.70;99.90
52075;DHT22;38075;53.172;5.446;2022-09-29T17:27:36;12.70;99.90
52075;DHT22;38075;53.172;5.446;2022-09-29T17:30:22;12.60;99.90
52075;DHT22;38075;53.172;5.446;2022-09-29T17:32:50;12.60;99.90
52075;DHT22;38075;53.172;5.446;2022-09-29T17:35:18;12.50;99.90
52075;DHT22;38075;53.172;5.446;2022-09-29T17:37:46;12.50;99.90
52075;DHT22;38075;53.172;5.446;2022-09-29T17:41:17;12.40;99.90
52075;DHT22;38075;53.172;5.446;2022-09-29T17:43:11;12.40;99.90
52075;DHT22;38075;53.172;5.446;2022-09-29T17:45:37;12.80;99.90
52075;DHT22;38075;53.172;5.446;2022-09-29T17:48:06;12.30;99.90
52075;DHT22;38075;53.172;5.446;2022-09-29T17:50:36;12.20;99.90
52075;DHT22;38075;53.172;5.446;2022-09-29T17:53:03;12.20;99.90
52075;DHT22;38075;53.172;5.446;2022-09-29T17:55:30;12.20;99.90
52075;DHT22;38075;53.172;5.446;2022-09-29T17:57:56;12.20;99.90
52075;DHT22;38075;53.172;5.446;2022-09-29T18:00:24;12.20;99.90
52075;DHT22;38075;53.172;5.446;2022-09-29T18:02:51;12.10;99.90
52075;DHT22;38075;53.172;5.446;2022-09-29T18:05:26;12.20;99.90
52075;DHT22;38075;53.172;5.446;2022-09-29T18:07:53;12.10;99.90
52075;DHT22;38075;53.172;5.446;2022-09-29T18:10:29;12.20;99.90
52075;DHT22;38075;53.172;5.446;2022-09-29T18:12:56;12.20;99.90
52075;DHT22;38075;53.172;5.446;2022-09-29T18:15:22;12.20;99.90
52075;DHT22;38075;53.172;5.446;2022-09-29T18:17:48;12.20;99.90
52075;DHT22;38075;53.172;5.446;2022-09-29T18:20:19;12.20;99.90
52075;DHT22;38075;53.172;5.446;2022-09-29T18:22:45;12.30;99.90
52075;DHT22;38075;53.172;5.446;2022-09-29T18:25:13;12.30;99.90
52075;DHT22;38075;53.172;5.446;2022-09-29T18:27:39;12.20;99.90
52075;DHT22;38075;53.172;5.446;2022-09-29T18:32:43;12.50;99.90
52075;DHT22;38075;53.172;5.446;2022-09-29T18:35:13;12.10;99.90
52075;DHT22;38075;53.172;5.446;2022-09-29T18:37:39;12.00;99.90
52075;DHT22;38075;53.172;5.446;2022-09-29T18:40:05;11.90;99.90
52075;DHT22;38075;53.172;5.446;2022-09-29T18:42:31;11.70;99.90
52075;DHT22;38075;53.172;5.446;2022-09-29T18:44:56;11.60;99.90
52075;DHT22;38075;53.172;5.446;2022-09-29T18:47:22;11.50;99.90
52075;DHT22;38075;53.172;5.446;2022-09-29T18:49:47;11.40;99.90
52075;DHT22;38075;53.172;5.446;2022-09-29T18:52:13;11.30;99.90
52075;DHT22;38075;53.172;5.446;2022-09-29T18:54:39;11.20;99.90
52075;DHT22;38075;53.172;5.446;2022-09-29T18:57:04;11.10;99.90
52075;DHT22;38075;53.172;5.446;2022-09-29T18:59:32;11.10;99.90
52075;DHT22;38075;53.172;5.446;2022-09-29T19:01:58;10.90;99.90
52075;DHT22;38075;53.172;5.446;2022-09-29T19:04:23;10.90;99.90
52075;DHT22;38075;53.172;5.446;2022-09-29T19:06:50;10.80;99.90
52075;DHT22;38075;53.172;5.446;2022-09-29T19:09:15;10.70;99.90
52075;DHT22;38075;53.172;5.446;2022-09-29T19:11:44;10.70;99.90
52075;DHT22;38075;53.172;5.446;2022-09-29T19:14:10;10.70;99.90
52075;DHT22;38075;53.172;5.446;2022-09-29T19:16:35;10.60;99.90
52075;DHT22;38075;53.172;5.446;2022-09-29T19:19:01;10.60;99.90
52075;DHT22;38075;53.172;5.446;2022-09-29T19:21:29;10.70;99.90
52075;DHT22;38075;53.172;5.446;2022-09-29T19:23:57;10.70;99.90
52075;DHT22;38075;53.172;5.446;2022-09-29T19:26:22;10.70;99.90
52075;DHT22;38075;53.172;5.446;2022-09-29T19:28:49;10.80;99.90
52075;DHT22;38075;53.172;5.446;2022-09-29T19:31:17;10.80;99.90
52075;DHT22;38075;53.172;5.446;2022-09-29T19:33:43;10.90;99.90
52075;DHT22;38075;53.172;5.446;2022-09-29T19:36:17;10.80;99.90
52075;DHT22;38075;53.172;5.446;2022-09-29T19:38:43;11.10;99.90
52075;DHT22;38075;53.172;5.446;2022-09-29T19:41:17;10.80;99.90
52075;DHT22;38075;53.172;5.446;2022-09-29T19:43:43;10.80;99.90
52075;DHT22;38075;53.172;5.446;2022-09-29T19:46:11;10.80;99.90